sensor_id;sensor_type;location;lat;lon;timestamp;P1;durP1;ratioP1;P2;durP2;ratioP2
77038;SDS011;65970;50.476;4.840;2023-08-01T00:01:12;0.10;;;0.10;;
77038;SDS011;65970;50.476;4.840;2023-08-01T00:06:13;0.52;;;0.10;;
77038;SDS011;65970;50.476;4.840;2023-08-01T00:11:14;0.10;;;0.10;;
77038;SDS011;65970;50.476;4.840;2023-08-01T00:16:14;0.17;;;0.10;;
77038;SDS011;65970;50.476;4.840;2023-08-01T00:21:15;0.20;;;0.20;;
77038;SDS011;65970;50.476;4.840;2023-08-01T00:26:16;0.20;;;0.20;;
77038;SDS011;65970;50.476;4.840;2023-08-01T00:31:16;0.13;;;0.13;;
77038;SDS011;65970;50.476;4.840;2023-08-01T00:36:17;0.20;;;0.20;;
77038;SDS011;65970;50.476;4.840;2023-08-01T00:41:17;0.10;;;0.10;;
77038;SDS011;65970;50.476;4.840;2023-08-01T00:46:18;1.00;;;0.30;;
77038;SDS011;65970;50.476;4.840;2023-08-01T00:51:19;0.47;;;0.40;;
77038;SDS011;65970;50.476;4.840;2023-08-01T00:56:19;0.47;;;0.25;;
77038;SDS011;65970;50.476;4.840;2023-08-01T01:01:20;0.98;;;0.25;;
77038;SDS011;65970;50.476;4.840;2023-08-01T01:06:24;0.77;;;0.30;;
77038;SDS011;65970;50.476;4.840;2023-08-01T01:11:26;0.35;;;0.35;;
77038;SDS011;65970;50.476;4.840;2023-08-01T01:16:26;0.90;;;0.40;;
77038;SDS011;65970;50.476;4.840;2023-08-01T01:21:27;0.47;;;0.30;;
77038;SDS011;65970;50.476;4.840;2023-08-01T01:26:27;1.70;;;0.32;;
77038;SDS011;65970;50.476;4.840;2023-08-01T01:31:28;0.30;;;0.30;;
77038;SDS011;65970;50.476;4.840;2023-08-01T01:36:30;0.88;;;0.30;;
77038;SDS011;65970;50.476;4.840;2023-08-01T01:41:30;0.80;;;0.80;;
77038;SDS011;65970;50.476;4.840;2023-08-01T01:46:31;0.38;;;0.38;;
77038;SDS011;65970;50.476;4.840;2023-08-01T01:51:31;1.95;;;0.52;;
77038;SDS011;65970;50.476;4.840;2023-08-01T01:56:32;3.70;;;0.73;;
77038;SDS011;65970;50.476;4.840;2023-08-01T02:01:32;0.50;;;0.50;;
77038;SDS011;65970;50.476;4.840;2023-08-01T02:06:33;2.40;;;0.65;;
77038;SDS011;65970;50.476;4.840;2023-08-01T02:11:34;1.17;;;0.65;;
77038;SDS011;65970;50.476;4.840;2023-08-01T02:16:34;0.50;;;0.45;;
77038;SDS011;65970;50.476;4.840;2023-08-01T02:21:35;0.38;;;0.30;;
77038;SDS011;65970;50.476;4.840;2023-08-01T02:26:35;0.70;;;0.50;;
77038;SDS011;65970;50.476;4.840;2023-08-01T02:31:36;1.13;;;0.50;;
77038;SDS011;65970;50.476;4.840;2023-08-01T02:36:36;1.95;;;1.05;;
77038;SDS011;65970;50.476;4.840;2023-08-01T02:41:37;0.95;;;0.70;;
77038;SDS011;65970;50.476;4.840;2023-08-01T02:46:37;2.03;;;0.60;;
77038;SDS011;65970;50.476;4.840;2023-08-01T02:51:38;3.33;;;0.93;;
77038;SDS011;65970;50.476;4.840;2023-08-01T02:56:38;1.05;;;0.93;;
77038;SDS011;65970;50.476;4.840;2023-08-01T03:01:39;1.58;;;0.82;;
77038;SDS011;65970;50.476;4.840;2023-08-01T03:06:39;1.73;;;1.42;;
77038;SDS011;65970;50.476;4.840;2023-08-01T03:11:40;2.53;;;1.42;;
77038;SDS011;65970;50.476;4.840;2023-08-01T03:16:40;3.95;;;1.38;;
77038;SDS011;65970;50.476;4.840;2023-08-01T03:21:41;2.22;;;1.55;;
77038;SDS011;65970;50.476;4.840;2023-08-01T03:26:42;3.67;;;1.83;;
77038;SDS011;65970;50.476;4.840;2023-08-01T03:31:42;5.95;;;1.95;;
77038;SDS011;65970;50.476;4.840;2023-08-01T03:36:43;3.30;;;1.67;;
77038;SDS011;65970;50.476;4.840;2023-08-01T03:41:43;5.10;;;1.83;;
77038;SDS011;65970;50.476;4.840;2023-08-01T03:46:44;5.28;;;2.38;;
77038;SDS011;65970;50.476;4.840;2023-08-01T03:51:44;5.22;;;1.85;;
77038;SDS011;65970;50.476;4.840;2023-08-01T03:56:45;3.90;;;1.90;;
77038;SDS011;65970;50.476;4.840;2023-08-01T04:01:45;5.07;;;1.80;;
77038;SDS011;65970;50.476;4.840;2023-08-01T04:06:46;4.10;;;1.77;;
77038;SDS011;65970;50.476;4.840;2023-08-01T04:11:46;4.70;;;1.88;;
77038;SDS011;65970;50.476;4.840;2023-08-01T04:16:48;4.05;;;1.38;;
77038;SDS011;65970;50.476;4.840;2023-08-01T04:21:49;2.17;;;1.38;;
77038;SDS011;65970;50.476;4.840;2023-08-01T04:26:49;4.63;;;1.73;;
77038;SDS011;65970;50.476;4.840;2023-08-01T04:31:50;5.15;;;1.75;;
77038;SDS011;65970;50.476;4.840;2023-08-01T04:36:50;1.48;;;1.38;;
77038;SDS011;65970;50.476;4.840;2023-08-01T04:41:51;3.13;;;1.55;;
77038;SDS011;65970;50.476;4.840;2023-08-01T04:46:51;2.47;;;1.80;;
77038;SDS011;65970;50.476;4.840;2023-08-01T04:51:52;10.70;;;2.10;;
77038;SDS011;65970;50.476;4.840;2023-08-01T04:56:52;4.97;;;3.00;;
77038;SDS011;65970;50.476;4.840;2023-08-01T05:01:53;3.50;;;1.65;;
77038;SDS011;65970;50.476;4.840;2023-08-01T05:06:53;3.13;;;1.83;;
77038;SDS011;65970;50.476;4.840;2023-08-01T05:11:54;4.15;;;1.80;;
77038;SDS011;65970;50.476;4.840;2023-08-01T05:16:54;3.20;;;2.10;;
77038;SDS011;65970;50.476;4.840;2023-08-01T05:21:55;3.95;;;2.05;;
77038;SDS011;65970;50.476;4.840;2023-08-01T05:26:55;4.57;;;2.50;;
77038;SDS011;65970;50.476;4.840;2023-08-01T05:31:56;7.68;;;2.85;;
77038;SDS011;65970;50.476;4.840;2023-08-01T05:36:56;8.63;;;2.83;;
77038;SDS011;65970;50.476;4.840;2023-08-01T05:41:57;4.50;;;2.17;;
77038;SDS011;65970;50.476;4.840;2023-08-01T05:46:58;3.45;;;2.03;;
77038;SDS011;65970;50.476;4.840;2023-08-01T05:51:58;4.93;;;2.50;;
77038;SDS011;65970;50.476;4.840;2023-08-01T05:56:59;4.03;;;2.28;;
77038;SDS011;65970;50.476;4.840;2023-08-01T06:01:59;4.47;;;2.15;;
77038;SDS011;65970;50.476;4.840;2023-08-01T06:07:00;3.83;;;2.30;;
77038;SDS011;65970;50.476;4.840;2023-08-01T06:12:00;9.48;;;2.33;;
77038;SDS011;65970;50.476;4.840;2023-08-01T06:17:01;4.63;;;2.70;;
77038;SDS011;65970;50.476;4.840;2023-08-01T06:22:01;6.07;;;2.47;;
77038;SDS011;65970;50.476;4.840;2023-08-01T06:27:02;3.97;;;1.70;;
77038;SDS011;65970;50.476;4.840;2023-08-01T06:32:03;9.07;;;2.13;;
77038;SDS011;65970;50.476;4.840;2023-08-01T06:37:04;6.25;;;2.00;;
77038;SDS011;65970;50.476;4.840;2023-08-01T06:42:05;5.05;;;2.70;;
77038;SDS011;65970;50.476;4.840;2023-08-01T06:47:05;6.38;;;2.22;;
77038;SDS011;65970;50.476;4.840;2023-08-01T06:52:06;5.95;;;2.55;;
77038;SDS011;65970;50.476;4.840;2023-08-01T06:57:07;4.07;;;1.80;;
77038;SDS011;65970;50.476;4.840;2023-08-01T07:02:07;5.20;;;2.15;;
77038;SDS011;65970;50.476;4.840;2023-08-01T07:07:08;5.90;;;2.58;;
77038;SDS011;65970;50.476;4.840;2023-08-01T07:12:09;6.90;;;2.78;;
77038;SDS011;65970;50.476;4.840;2023-08-01T07:17:09;5.80;;;2.13;;
77038;SDS011;65970;50.476;4.840;2023-08-01T07:22:10;4.50;;;2.53;;
77038;SDS011;65970;50.476;4.840;2023-08-01T07:27:10;5.45;;;2.45;;
77038;SDS011;65970;50.476;4.840;2023-08-01T07:32:11;7.82;;;2.88;;
77038;SDS011;65970;50.476;4.840;2023-08-01T07:37:11;5.50;;;1.83;;
77038;SDS011;65970;50.476;4.840;2023-08-01T07:42:12;5.57;;;2.20;;
77038;SDS011;65970;50.476;4.840;2023-08-01T07:47:12;4.40;;;2.05;;
77038;SDS011;65970;50.476;4.840;2023-08-01T07:52:13;6.10;;;2.85;;
77038;SDS011;65970;50.476;4.840;2023-08-01T07:57:13;5.10;;;2.55;;
77038;SDS011;65970;50.476;4.840;2023-08-01T08:02:14;4.72;;;2.40;;
77038;SDS011;65970;50.476;4.840;2023-08-01T08:07:15;6.43;;;2.30;;
77038;SDS011;65970;50.476;4.840;2023-08-01T08:12:15;5.38;;;1.92;;
77038;SDS011;65970;50.476;4.840;2023-08-01T08:17:16;5.03;;;1.92;;
77038;SDS011;65970;50.476;4.840;2023-08-01T08:22:16;2.30;;;1.92;;
77038;SDS011;65970;50.476;4.840;2023-08-01T08:27:17;5.18;;;1.67;;
77038;SDS011;65970;50.476;4.840;2023-08-01T08:32:17;4.40;;;2.33;;
77038;SDS011;65970;50.476;4.840;2023-08-01T08:37:18;6.20;;;1.67;;
77038;SDS011;65970;50.476;4.840;2023-08-01T08:42:18;2.75;;;1.40;;
77038;SDS011;65970;50.476;4.840;2023-08-01T08:47:19;6.38;;;2.05;;
77038;SDS011;65970;50.476;4.840;2023-08-01T08:52:22;4.90;;;1.70;;
77038;SDS011;65970;50.476;4.840;2023-08-01T08:57:24;6.78;;;2.15;;
77038;SDS011;65970;50.476;4.840;2023-08-01T09:02:25;6.72;;;2.10;;
77038;SDS011;65970;50.476;4.840;2023-08-01T09:07:27;3.20;;;1.75;;
77038;SDS011;65970;50.476;4.840;2023-08-01T09:12:33;3.13;;;1.60;;
77038;SDS011;65970;50.476;4.840;2023-08-01T09:17:34;4.13;;;1.75;;
77038;SDS011;65970;50.476;4.840;2023-08-01T09:22:41;3.33;;;1.90;;
77038;SDS011;65970;50.476;4.840;2023-08-01T09:27:45;8.77;;;1.80;;
77038;SDS011;65970;50.476;4.840;2023-08-01T09:32:52;5.78;;;2.00;;
77038;SDS011;65970;50.476;4.840;2023-08-01T09:37:53;6.47;;;1.85;;
77038;SDS011;65970;50.476;4.840;2023-08-01T09:42:54;8.52;;;1.52;;
77038;SDS011;65970;50.476;4.840;2023-08-01T09:48:02;3.90;;;1.40;;
77038;SDS011;65970;50.476;4.840;2023-08-01T09:53:06;4.13;;;1.65;;
77038;SDS011;65970;50.476;4.840;2023-08-01T09:58:07;5.03;;;1.83;;
77038;SDS011;65970;50.476;4.840;2023-08-01T10:03:13;3.17;;;1.23;;
77038;SDS011;65970;50.476;4.840;2023-08-01T10:08:14;3.58;;;1.55;;
77038;SDS011;65970;50.476;4.840;2023-08-01T10:13:15;1.25;;;1.00;;
77038;SDS011;65970;50.476;4.840;2023-08-01T10:18:17;5.20;;;1.13;;
77038;SDS011;65970;50.476;4.840;2023-08-01T10:23:18;6.15;;;1.45;;
77038;SDS011;65970;50.476;4.840;2023-08-01T10:28:20;1.63;;;1.17;;
77038;SDS011;65970;50.476;4.840;2023-08-01T10:33:34;6.88;;;1.95;;
77038;SDS011;65970;50.476;4.840;2023-08-01T10:38:43;4.93;;;2.38;;
77038;SDS011;65970;50.476;4.840;2023-08-01T10:44:10;5.05;;;2.30;;
77038;SDS011;65970;50.476;4.840;2023-08-01T10:49:13;4.15;;;2.05;;
77038;SDS011;65970;50.476;4.840;2023-08-01T10:59:21;1.60;;;1.15;;
77038;SDS011;65970;50.476;4.840;2023-08-01T11:04:22;2.80;;;1.35;;
77038;SDS011;65970;50.476;4.840;2023-08-01T11:09:25;3.45;;;1.00;;
77038;SDS011;65970;50.476;4.840;2023-08-01T11:14:27;6.45;;;1.33;;
77038;SDS011;65970;50.476;4.840;2023-08-01T11:19:29;3.47;;;1.35;;
77038;SDS011;65970;50.476;4.840;2023-08-01T11:24:29;2.38;;;1.10;;
77038;SDS011;65970;50.476;4.840;2023-08-01T11:29:30;5.57;;;1.67;;
77038;SDS011;65970;50.476;4.840;2023-08-01T11:34:38;5.82;;;1.80;;
77038;SDS011;65970;50.476;4.840;2023-08-01T11:39:40;4.25;;;1.27;;
77038;SDS011;65970;50.476;4.840;2023-08-01T11:44:41;4.53;;;1.13;;
77038;SDS011;65970;50.476;4.840;2023-08-01T11:49:45;1.30;;;0.85;;
77038;SDS011;65970;50.476;4.840;2023-08-01T11:54:47;3.58;;;0.98;;
77038;SDS011;65970;50.476;4.840;2023-08-01T11:59:51;3.17;;;0.80;;
77038;SDS011;65970;50.476;4.840;2023-08-01T12:04:54;2.38;;;0.90;;
77038;SDS011;65970;50.476;4.840;2023-08-01T12:09:58;5.07;;;1.00;;
77038;SDS011;65970;50.476;4.840;2023-08-01T12:14:59;2.47;;;1.15;;
77038;SDS011;65970;50.476;4.840;2023-08-01T12:20:00;2.17;;;0.98;;
77038;SDS011;65970;50.476;4.840;2023-08-01T12:25:00;6.28;;;1.67;;
77038;SDS011;65970;50.476;4.840;2023-08-01T12:30:01;3.08;;;1.05;;
77038;SDS011;65970;50.476;4.840;2023-08-01T12:35:02;2.30;;;1.20;;
77038;SDS011;65970;50.476;4.840;2023-08-01T12:40:02;2.40;;;1.58;;
77038;SDS011;65970;50.476;4.840;2023-08-01T12:45:03;3.05;;;0.80;;
77038;SDS011;65970;50.476;4.840;2023-08-01T12:50:04;2.83;;;1.30;;
77038;SDS011;65970;50.476;4.840;2023-08-01T12:55:05;3.08;;;1.20;;
77038;SDS011;65970;50.476;4.840;2023-08-01T13:00:06;1.95;;;0.90;;
77038;SDS011;65970;50.476;4.840;2023-08-01T13:05:08;3.95;;;1.63;;
77038;SDS011;65970;50.476;4.840;2023-08-01T13:10:08;2.95;;;1.50;;
77038;SDS011;65970;50.476;4.840;2023-08-01T13:15:09;2.22;;;1.05;;
77038;SDS011;65970;50.476;4.840;2023-08-01T13:20:10;2.47;;;1.02;;
77038;SDS011;65970;50.476;4.840;2023-08-01T13:25:10;4.78;;;1.20;;
77038;SDS011;65970;50.476;4.840;2023-08-01T13:30:12;3.08;;;1.10;;
77038;SDS011;65970;50.476;4.840;2023-08-01T13:35:13;1.75;;;0.98;;
77038;SDS011;65970;50.476;4.840;2023-08-01T13:40:14;3.63;;;0.90;;
77038;SDS011;65970;50.476;4.840;2023-08-01T13:45:15;2.70;;;1.27;;
77038;SDS011;65970;50.476;4.840;2023-08-01T13:50:15;3.90;;;0.93;;
77038;SDS011;65970;50.476;4.840;2023-08-01T13:55:16;3.83;;;0.93;;
77038;SDS011;65970;50.476;4.840;2023-08-01T14:00:16;3.78;;;0.93;;
77038;SDS011;65970;50.476;4.840;2023-08-01T14:05:17;2.20;;;0.60;;
77038;SDS011;65970;50.476;4.840;2023-08-01T14:10:18;1.73;;;0.80;;
77038;SDS011;65970;50.476;4.840;2023-08-01T14:15:19;3.00;;;1.10;;
77038;SDS011;65970;50.476;4.840;2023-08-01T14:20:20;1.38;;;0.98;;
77038;SDS011;65970;50.476;4.840;2023-08-01T14:25:20;5.03;;;2.15;;
77038;SDS011;65970;50.476;4.840;2023-08-01T14:30:21;3.63;;;1.40;;
77038;SDS011;65970;50.476;4.840;2023-08-01T14:35:21;3.05;;;0.63;;
77038;SDS011;65970;50.476;4.840;2023-08-01T14:40:22;4.03;;;1.10;;
77038;SDS011;65970;50.476;4.840;2023-08-01T14:45:23;0.88;;;0.80;;
77038;SDS011;65970;50.476;4.840;2023-08-01T14:50:25;1.75;;;0.65;;
77038;SDS011;65970;50.476;4.840;2023-08-01T14:55:25;3.97;;;1.02;;
77038;SDS011;65970;50.476;4.840;2023-08-01T15:00:26;2.95;;;1.38;;
77038;SDS011;65970;50.476;4.840;2023-08-01T15:05:26;2.50;;;0.75;;
77038;SDS011;65970;50.476;4.840;2023-08-01T15:10:27;3.58;;;0.80;;
77038;SDS011;65970;50.476;4.840;2023-08-01T15:15:27;4.60;;;1.35;;
77038;SDS011;65970;50.476;4.840;2023-08-01T15:20:28;6.53;;;0.93;;
77038;SDS011;65970;50.476;4.840;2023-08-01T15:25:28;2.95;;;0.98;;
77038;SDS011;65970;50.476;4.840;2023-08-01T15:30:29;1.48;;;1.00;;
77038;SDS011;65970;50.476;4.840;2023-08-01T15:35:29;3.60;;;0.88;;
77038;SDS011;65970;50.476;4.840;2023-08-01T15:40:30;2.22;;;0.60;;
77038;SDS011;65970;50.476;4.840;2023-08-01T15:45:30;2.30;;;0.68;;
77038;SDS011;65970;50.476;4.840;2023-08-01T15:50:31;2.60;;;1.02;;
77038;SDS011;65970;50.476;4.840;2023-08-01T15:55:32;1.90;;;0.63;;
77038;SDS011;65970;50.476;4.840;2023-08-01T16:00:32;2.67;;;0.90;;
77038;SDS011;65970;50.476;4.840;2023-08-01T16:05:33;3.35;;;1.27;;
77038;SDS011;65970;50.476;4.840;2023-08-01T16:10:33;3.30;;;2.08;;
77038;SDS011;65970;50.476;4.840;2023-08-01T16:15:34;2.05;;;0.80;;
77038;SDS011;65970;50.476;4.840;2023-08-01T16:20:36;4.47;;;1.05;;
77038;SDS011;65970;50.476;4.840;2023-08-01T16:25:37;2.72;;;1.00;;
77038;SDS011;65970;50.476;4.840;2023-08-01T16:30:37;3.80;;;0.95;;
77038;SDS011;65970;50.476;4.840;2023-08-01T16:35:38;5.88;;;1.48;;
77038;SDS011;65970;50.476;4.840;2023-08-01T16:40:39;2.83;;;1.10;;
77038;SDS011;65970;50.476;4.840;2023-08-01T16:45:39;2.35;;;0.80;;
77038;SDS011;65970;50.476;4.840;2023-08-01T16:50:40;2.85;;;1.38;;
77038;SDS011;65970;50.476;4.840;2023-08-01T16:55:40;5.45;;;1.10;;
77038;SDS011;65970;50.476;4.840;2023-08-01T17:00:41;6.05;;;1.20;;
77038;SDS011;65970;50.476;4.840;2023-08-01T17:05:41;4.13;;;1.00;;
77038;SDS011;65970;50.476;4.840;2023-08-01T17:10:42;3.78;;;1.20;;
77038;SDS011;65970;50.476;4.840;2023-08-01T17:15:43;2.92;;;1.45;;
77038;SDS011;65970;50.476;4.840;2023-08-01T17:20:43;2.35;;;0.90;;
77038;SDS011;65970;50.476;4.840;2023-08-01T17:25:44;5.60;;;1.20;;
77038;SDS011;65970;50.476;4.840;2023-08-01T17:30:44;5.22;;;1.20;;
77038;SDS011;65970;50.476;4.840;2023-08-01T17:35:45;4.05;;;1.27;;
77038;SDS011;65970;50.476;4.840;2023-08-01T17:40:45;4.57;;;1.17;;
77038;SDS011;65970;50.476;4.840;2023-08-01T17:45:46;2.58;;;0.88;;
77038;SDS011;65970;50.476;4.840;2023-08-01T17:50:46;5.10;;;0.88;;
77038;SDS011;65970;50.476;4.840;2023-08-01T17:55:47;1.42;;;1.30;;
77038;SDS011;65970;50.476;4.840;2023-08-01T18:00:47;1.58;;;0.95;;
77038;SDS011;65970;50.476;4.840;2023-08-01T18:05:48;3.33;;;0.82;;
77038;SDS011;65970;50.476;4.840;2023-08-01T18:10:48;3.70;;;1.65;;
77038;SDS011;65970;50.476;4.840;2023-08-01T18:15:49;3.10;;;0.77;;
77038;SDS011;65970;50.476;4.840;2023-08-01T18:20:56;2.13;;;0.70;;
77038;SDS011;65970;50.476;4.840;2023-08-01T18:25:57;1.65;;;0.93;;
77038;SDS011;65970;50.476;4.840;2023-08-01T18:31:10;2.35;;;0.98;;
77038;SDS011;65970;50.476;4.840;2023-08-01T18:36:11;3.37;;;1.07;;
77038;SDS011;65970;50.476;4.840;2023-08-01T18:41:13;2.28;;;0.75;;
77038;SDS011;65970;50.476;4.840;2023-08-01T18:46:14;2.53;;;1.02;;
77038;SDS011;65970;50.476;4.840;2023-08-01T18:51:16;2.03;;;0.73;;
77038;SDS011;65970;50.476;4.840;2023-08-01T18:56:17;3.28;;;1.23;;
77038;SDS011;65970;50.476;4.840;2023-08-01T19:01:21;1.35;;;0.70;;
77038;SDS011;65970;50.476;4.840;2023-08-01T19:06:24;1.50;;;0.80;;
77038;SDS011;65970;50.476;4.840;2023-08-01T19:11:25;2.20;;;0.60;;
77038;SDS011;65970;50.476;4.840;2023-08-01T19:16:26;1.67;;;0.80;;
77038;SDS011;65970;50.476;4.840;2023-08-01T19:21:28;3.15;;;0.90;;
77038;SDS011;65970;50.476;4.840;2023-08-01T19:26:29;2.42;;;0.80;;
77038;SDS011;65970;50.476;4.840;2023-08-01T19:31:29;3.15;;;0.50;;
77038;SDS011;65970;50.476;4.840;2023-08-01T19:36:30;1.70;;;0.60;;
77038;SDS011;65970;50.476;4.840;2023-08-01T19:41:30;2.72;;;0.82;;
77038;SDS011;65970;50.476;4.840;2023-08-01T19:46:31;1.48;;;0.73;;
77038;SDS011;65970;50.476;4.840;2023-08-01T19:51:32;1.25;;;0.50;;
77038;SDS011;65970;50.476;4.840;2023-08-01T19:56:32;0.82;;;0.50;;
77038;SDS011;65970;50.476;4.840;2023-08-01T20:01:33;1.10;;;0.68;;
77038;SDS011;65970;50.476;4.840;2023-08-01T20:06:33;1.58;;;0.63;;
77038;SDS011;65970;50.476;4.840;2023-08-01T20:11:34;2.17;;;1.20;;
77038;SDS011;65970;50.476;4.840;2023-08-01T20:16:34;1.80;;;0.80;;
77038;SDS011;65970;50.476;4.840;2023-08-01T20:21:35;3.47;;;1.00;;
77038;SDS011;65970;50.476;4.840;2023-08-01T20:26:35;3.97;;;1.20;;
77038;SDS011;65970;50.476;4.840;2023-08-01T20:31:36;3.20;;;0.98;;
77038;SDS011;65970;50.476;4.840;2023-08-01T20:36:36;1.30;;;0.60;;
77038;SDS011;65970;50.476;4.840;2023-08-01T20:41:37;0.93;;;0.82;;
77038;SDS011;65970;50.476;4.840;2023-08-01T20:46:38;1.52;;;0.70;;
77038;SDS011;65970;50.476;4.840;2023-08-01T20:51:38;1.15;;;0.75;;
77038;SDS011;65970;50.476;4.840;2023-08-01T20:56:39;2.33;;;0.90;;
77038;SDS011;65970;50.476;4.840;2023-08-01T21:01:39;2.22;;;1.00;;
77038;SDS011;65970;50.476;4.840;2023-08-01T21:06:40;4.22;;;1.15;;
77038;SDS011;65970;50.476;4.840;2023-08-01T21:11:40;1.05;;;0.82;;
77038;SDS011;65970;50.476;4.840;2023-08-01T21:16:41;1.23;;;0.80;;
77038;SDS011;65970;50.476;4.840;2023-08-01T21:21:42;1.77;;;1.00;;
77038;SDS011;65970;50.476;4.840;2023-08-01T21:26:42;2.50;;;1.42;;
77038;SDS011;65970;50.476;4.840;2023-08-01T21:31:43;3.47;;;1.00;;
77038;SDS011;65970;50.476;4.840;2023-08-01T21:36:44;3.35;;;1.10;;
77038;SDS011;65970;50.476;4.840;2023-08-01T21:41:44;1.48;;;1.00;;
77038;SDS011;65970;50.476;4.840;2023-08-01T21:46:45;3.00;;;1.20;;
77038;SDS011;65970;50.476;4.840;2023-08-01T21:51:45;2.67;;;1.10;;
77038;SDS011;65970;50.476;4.840;2023-08-01T21:56:46;2.92;;;1.10;;
77038;SDS011;65970;50.476;4.840;2023-08-01T22:01:46;4.22;;;2.22;;
77038;SDS011;65970;50.476;4.840;2023-08-01T22:06:47;4.25;;;0.98;;
77038;SDS011;65970;50.476;4.840;2023-08-01T22:11:47;2.80;;;1.15;;
77038;SDS011;65970;50.476;4.840;2023-08-01T22:16:48;3.00;;;1.30;;
77038;SDS011;65970;50.476;4.840;2023-08-01T22:21:48;3.08;;;1.00;;
77038;SDS011;65970;50.476;4.840;2023-08-01T22:26:49;2.03;;;1.10;;
77038;SDS011;65970;50.476;4.840;2023-08-01T22:31:50;1.30;;;0.95;;
77038;SDS011;65970;50.476;4.840;2023-08-01T22:36:50;4.57;;;1.20;;
77038;SDS011;65970;50.476;4.840;2023-08-01T22:41:51;2.00;;;1.20;;
77038;SDS011;65970;50.476;4.840;2023-08-01T22:46:51;2.80;;;1.88;;
77038;SDS011;65970;50.476;4.840;2023-08-01T22:51:52;2.92;;;1.33;;
77038;SDS011;65970;50.476;4.840;2023-08-01T22:56:52;2.22;;;0.95;;
77038;SDS011;65970;50.476;4.840;2023-08-01T23:01:54;2.63;;;1.40;;
77038;SDS011;65970;50.476;4.840;2023-08-01T23:06:54;2.90;;;1.55;;
77038;SDS011;65970;50.476;4.840;2023-08-01T23:11:56;2.00;;;1.48;;
77038;SDS011;65970;50.476;4.840;2023-08-01T23:16:56;1.13;;;1.00;;
77038;SDS011;65970;50.476;4.840;2023-08-01T23:21:57;3.00;;;1.25;;
77038;SDS011;65970;50.476;4.840;2023-08-01T23:26:57;1.75;;;1.08;;
77038;SDS011;65970;50.476;4.840;2023-08-01T23:31:58;3.28;;;1.38;;
77038;SDS011;65970;50.476;4.840;2023-08-01T23:36:58;2.80;;;1.23;;
77038;SDS011;65970;50.476;4.840;2023-08-01T23:41:59;2.25;;;1.38;;
77038;SDS011;65970;50.476;4.840;2023-08-01T23:46:59;5.22;;;1.38;;
77038;SDS011;65970;50.476;4.840;2023-08-01T23:52:00;3.35;;;1.40;;
77038;SDS011;65970;50.476;4.840;2023-08-01T23:57:01;5.10;;;1.50;;
